createdAt,value
2023-03-22T00:01:44.039Z,92.90
2023-03-22T00:04:11.489Z,93.00
2023-03-22T00:06:38.775Z,93.00
2023-03-22T00:09:06.122Z,93.10
2023-03-22T00:11:34.155Z,93.10
2023-03-22T00:14:01.423Z,93.30
2023-03-22T00:16:28.945Z,93.50
2023-03-22T00:18:56.315Z,93.50
2023-03-22T00:21:23.582Z,93.70
2023-03-22T00:23:50.945Z,93.60
2023-03-22T00:26:18.281Z,93.60
2023-03-22T00:28:45.875Z,93.80
2023-03-22T00:31:15.181Z,93.70
2023-03-22T00:33:43.346Z,93.80
2023-03-22T00:36:12.006Z,93.90
2023-03-22T00:38:44.246Z,94.00
2023-03-22T00:41:16.735Z,94.00
2023-03-22T00:43:46.394Z,94.00
2023-03-22T00:46:14.776Z,94.00
2023-03-22T00:48:42.302Z,94.00
2023-03-22T00:51:10.402Z,94.00
2023-03-22T00:53:41.836Z,94.10
2023-03-22T00:56:14.097Z,94.20
2023-03-22T00:59:04.844Z,94.30
2023-03-22T01:01:32.437Z,94.30
2023-03-22T01:04:00.364Z,94.40
2023-03-22T01:06:27.836Z,94.50
2023-03-22T01:08:57.216Z,94.60
2023-03-22T01:11:25.691Z,94.70
2023-03-22T01:13:54.694Z,94.70
2023-03-22T01:16:22.029Z,94.80
2023-03-22T01:18:49.386Z,94.90
2023-03-22T01:21:17.201Z,94.90
2023-03-22T01:23:44.786Z,94.90
2023-03-22T01:26:12.333Z,94.90
2023-03-22T01:28:40.613Z,94.90
2023-03-22T01:31:08.138Z,94.90
2023-03-22T01:33:35.556Z,95.00
2023-03-22T01:36:03.722Z,95.00
2023-03-22T01:38:34.232Z,95.00
2023-03-22T01:41:02.568Z,95.00
2023-03-22T01:43:32.421Z,95.00
2023-03-22T01:46:00.143Z,95.10
2023-03-22T01:48:45.880Z,95.10
2023-03-22T01:51:24.701Z,95.00
2023-03-22T01:54:06.705Z,95.00
2023-03-22T01:56:37.389Z,94.90
2023-03-22T01:59:07.608Z,94.90
2023-03-22T02:01:52.741Z,94.80
2023-03-22T02:04:23.699Z,94.80
2023-03-22T02:06:55.580Z,94.80
2023-03-22T02:09:24.525Z,94.80
2023-03-22T02:12:10.132Z,94.70
2023-03-22T02:14:57.868Z,94.70
2023-03-22T02:18:16.446Z,94.60
2023-03-22T02:21:03.911Z,94.50
2023-03-22T02:23:57.110Z,94.30
2023-03-22T02:26:43.989Z,94.30
2023-03-22T02:29:14.231Z,94.10
2023-03-22T02:31:58.351Z,94.20
2023-03-22T02:34:57.581Z,94.10
2023-03-22T02:37:34.037Z,94.10
2023-03-22T02:40:10.582Z,94.10
2023-03-22T02:42:43.744Z,94.10
2023-03-22T02:45:16.887Z,94.10
2023-03-22T02:48:09.543Z,94.00
2023-03-22T02:50:52.266Z,93.90
2023-03-22T02:53:38.479Z,93.90
2023-03-22T02:56:21.349Z,94.00
2023-03-22T02:58:53.324Z,94.00
2023-03-22T03:01:27.144Z,94.10
2023-03-22T03:03:57.690Z,94.00
2023-03-22T03:06:29.090Z,94.20
2023-03-22T03:08:57.960Z,94.40
2023-03-22T03:11:26.389Z,94.40
2023-03-22T03:13:53.791Z,94.30
2023-03-22T03:16:26.585Z,94.40
2023-03-22T03:19:03.114Z,94.30
2023-03-22T03:21:49.814Z,94.40
2023-03-22T03:24:33.426Z,94.20
2023-03-22T03:27:21.678Z,94.20
2023-03-22T03:29:52.069Z,94.10
2023-03-22T03:32:25.885Z,94.10
2023-03-22T03:35:04.795Z,94.10
2023-03-22T03:37:47.151Z,94.00
2023-03-22T03:40:37.439Z,94.10
2023-03-22T03:43:07.139Z,94.00
2023-03-22T03:45:37.123Z,93.70
2023-03-22T03:48:08.501Z,93.50
2023-03-22T03:50:38.413Z,93.30
2023-03-22T03:53:06.216Z,93.30
2023-03-22T03:55:33.946Z,93.30
2023-03-22T03:58:01.706Z,93.20
2023-03-22T04:00:29.176Z,93.10
2023-03-22T04:03:15.615Z,93.10
2023-03-22T04:06:06.550Z,93.00
2023-03-22T04:08:37.716Z,93.00
2023-03-22T04:11:05.890Z,93.00
2023-03-22T04:13:33.812Z,93.00
2023-03-22T04:16:04.357Z,93.10
2023-03-22T04:18:35.458Z,93.10
2023-03-22T04:21:07.062Z,93.10
2023-03-22T04:23:46.695Z,93.20
2023-03-22T04:26:16.949Z,93.30
2023-03-22T04:29:06.966Z,93.40
2023-03-22T04:31:37.540Z,93.50
2023-03-22T04:34:16.050Z,93.50
2023-03-22T04:36:54.309Z,93.60
2023-03-22T04:39:31.356Z,93.60
2023-03-22T04:42:31.153Z,93.60
2023-03-22T04:45:29.141Z,93.60
2023-03-22T04:48:00.588Z,93.50
2023-03-22T04:50:28.509Z,93.40
2023-03-22T04:53:00.319Z,93.30
2023-03-22T04:55:29.938Z,93.10
2023-03-22T04:57:57.267Z,93.00
2023-03-22T05:00:25.347Z,93.30
2023-03-22T05:02:54.078Z,93.00
2023-03-22T05:05:29.880Z,92.90
2023-03-22T05:07:59.216Z,92.90
2023-03-22T05:10:26.941Z,93.00
2023-03-22T05:12:54.554Z,93.10
2023-03-22T05:15:24.705Z,93.30
2023-03-22T05:17:53.394Z,93.10
2023-03-22T05:20:20.695Z,93.40
2023-03-22T05:22:57.170Z,93.30
2023-03-22T05:25:27.064Z,93.40
2023-03-22T05:27:54.676Z,93.40
2023-03-22T05:30:45.996Z,93.50
2023-03-22T05:33:24.890Z,93.60
2023-03-22T05:35:56.502Z,93.60
2023-03-22T05:38:25.843Z,93.50
2023-03-22T05:40:57.106Z,93.30
2023-03-22T05:43:24.557Z,93.00
2023-03-22T05:45:52.993Z,92.90
2023-03-22T05:48:49.442Z,93.00
2023-03-22T05:51:19.389Z,92.90
2023-03-22T05:53:51.589Z,93.00
2023-03-22T05:56:25.282Z,93.20
2023-03-22T06:02:16.524Z,93.60
2023-03-22T06:04:44.552Z,93.20
2023-03-22T06:07:14.551Z,93.50
2023-03-22T06:09:46.467Z,93.50
2023-03-22T06:12:24.614Z,93.90
2023-03-22T06:15:00.188Z,94.00
2023-03-22T06:17:54.205Z,94.80
2023-03-22T06:20:26.723Z,94.80
2023-03-22T06:23:01.361Z,95.30
2023-03-22T06:25:28.981Z,95.60
2023-03-22T06:27:56.732Z,95.70
2023-03-22T06:30:25.222Z,95.80
2023-03-22T06:33:13.258Z,96.10
2023-03-22T06:35:44.307Z,96.40
2023-03-22T06:38:15.683Z,96.50
2023-03-22T06:40:44.075Z,96.70
2023-03-22T06:43:12.316Z,96.90
2023-03-22T06:45:43.357Z,97.10
2023-03-22T06:48:12.819Z,97.30
2023-03-22T06:50:53.081Z,97.40
2023-03-22T06:53:27.199Z,97.40
2023-03-22T06:55:55.570Z,97.20
2023-03-22T06:58:25.255Z,97.10
2023-03-22T07:00:55.037Z,97.00
2023-03-22T07:03:24.668Z,97.00
2023-03-22T07:06:07.703Z,96.50
2023-03-22T07:08:38.957Z,96.90
2023-03-22T07:11:08.424Z,96.70
2023-03-22T07:13:36.391Z,96.80
2023-03-22T07:16:09.996Z,96.50
2023-03-22T07:18:48.292Z,96.30
2023-03-22T07:21:15.737Z,95.80
2023-03-22T07:23:47.784Z,95.60
2023-03-22T07:26:17.608Z,95.70
2023-03-22T07:28:48.038Z,95.70
2023-03-22T07:31:16.852Z,96.10
2023-03-22T07:33:52.151Z,96.10
2023-03-22T07:36:25.515Z,96.40
2023-03-22T07:38:53.984Z,96.20
2023-03-22T07:41:30.269Z,95.50
2023-03-22T07:44:36.094Z,95.00
2023-03-22T07:47:40.849Z,94.80
2023-03-22T07:50:29.897Z,94.30
2023-03-22T07:53:03.952Z,94.50
2023-03-22T07:55:34.808Z,94.00
2023-03-22T07:58:03.806Z,94.20
2023-03-22T08:00:32.685Z,93.70
2023-03-22T08:03:22.166Z,93.20
2023-03-22T08:06:07.150Z,91.80
2023-03-22T08:08:37.489Z,91.40
2023-03-22T08:11:07.548Z,90.90
2023-03-22T08:13:37.821Z,90.30
2023-03-22T08:16:08.740Z,88.60
2023-03-22T08:19:32.088Z,88.10
2023-03-22T08:22:01.319Z,87.90
2023-03-22T08:24:49.403Z,84.30
2023-03-22T08:27:27.543Z,81.10
2023-03-22T08:29:58.555Z,82.80
2023-03-22T08:32:26.439Z,81.60
2023-03-22T08:34:54.124Z,77.90
2023-03-22T08:37:21.946Z,77.20
2023-03-22T08:39:49.840Z,75.20
2023-03-22T08:42:32.562Z,74.50
2023-03-22T08:45:00.391Z,74.40
2023-03-22T08:47:32.089Z,73.70
2023-03-22T08:50:04.347Z,72.90
2023-03-22T08:52:41.244Z,71.20
2023-03-22T08:55:17.638Z,71.60
2023-03-22T08:58:04.905Z,71.30
2023-03-22T09:00:49.050Z,72.60
2023-03-22T09:03:38.658Z,71.10
2023-03-22T09:06:06.869Z,71.00
2023-03-22T09:08:38.275Z,71.50
2023-03-22T09:11:11.939Z,72.40
2023-03-22T09:13:39.496Z,72.00
2023-03-22T09:16:10.123Z,71.10
2023-03-22T09:18:42.472Z,72.30
2023-03-22T09:21:13.423Z,71.20
2023-03-22T09:23:52.201Z,73.00
2023-03-22T09:26:25.583Z,72.40
2023-03-22T09:28:55.048Z,72.70
2023-03-22T09:31:25.696Z,73.30
2023-03-22T09:34:06.334Z,74.60
2023-03-22T09:36:34.176Z,73.60
2023-03-22T09:39:07.184Z,72.10
2023-03-22T09:41:35.184Z,72.60
2023-03-22T09:44:12.527Z,72.90
2023-03-22T09:46:44.710Z,73.60
2023-03-22T09:49:20.151Z,74.10
2023-03-22T09:51:52.346Z,73.70
2023-03-22T10:00:54.013Z,73.50
2023-03-22T10:03:45.417Z,73.50
2023-03-22T10:06:19.156Z,74.60
2023-03-22T10:09:09.809Z,73.40
2023-03-22T10:11:54.749Z,73.00
2023-03-22T10:14:51.418Z,73.00
2023-03-22T10:17:25.469Z,73.10
2023-03-22T10:20:12.142Z,72.60
2023-03-22T10:22:43.899Z,72.40
2023-03-22T10:25:18.916Z,72.60
2023-03-22T10:27:51.678Z,73.80
2023-03-22T10:30:26.077Z,72.20
2023-03-22T10:33:22.685Z,71.90
2023-03-22T10:35:52.399Z,72.70
2023-03-22T10:38:25.291Z,72.70
2023-03-22T10:40:55.580Z,72.20
2023-03-22T10:43:34.677Z,72.30
2023-03-22T10:46:05.256Z,70.50
2023-03-22T10:48:36.226Z,71.30
2023-03-22T10:51:04.500Z,70.00
2023-03-22T10:53:42.341Z,69.90
2023-03-22T10:56:15.604Z,69.40
2023-03-22T10:58:43.299Z,69.40
2023-03-22T11:01:17.244Z,70.60
2023-03-22T11:03:49.783Z,69.70
2023-03-22T11:06:20.968Z,70.10
2023-03-22T11:08:57.330Z,69.80
2023-03-22T11:11:35.887Z,68.40
2023-03-22T11:14:19.458Z,68.90
2023-03-22T11:16:55.220Z,69.20
2023-03-22T11:19:34.628Z,69.70
2023-03-22T11:22:06.678Z,70.20
2023-03-22T11:24:34.869Z,68.90
2023-03-22T11:27:20.407Z,69.40
2023-03-22T11:29:51.371Z,70.00
2023-03-22T11:32:28.724Z,68.50
2023-03-22T11:35:14.817Z,68.50
2023-03-22T11:37:53.663Z,68.80
2023-03-22T11:40:20.992Z,67.70
2023-03-22T11:42:52.842Z,67.40
2023-03-22T11:45:36.201Z,67.20
2023-03-22T11:48:12.967Z,68.30
2023-03-22T11:50:45.742Z,67.70
2023-03-22T11:53:21.227Z,66.70
2023-03-22T11:55:51.304Z,67.00
2023-03-22T11:58:27.069Z,67.00
2023-03-22T12:01:00.892Z,66.20
2023-03-22T12:03:32.830Z,65.20
2023-03-22T12:06:05.396Z,66.40
2023-03-22T12:08:44.838Z,66.50
2023-03-22T12:11:25.468Z,65.80
2023-03-22T12:14:02.224Z,65.10
2023-03-22T12:16:36.407Z,66.10
2023-03-22T12:19:21.180Z,66.10
2023-03-22T12:21:50.309Z,66.20
2023-03-22T12:24:30.942Z,65.80
2023-03-22T12:27:14.850Z,67.20
2023-03-22T12:29:54.648Z,65.90
2023-03-22T12:32:29.395Z,65.40
2023-03-22T12:35:05.444Z,64.20
2023-03-22T12:37:48.405Z,64.30
2023-03-22T12:40:42.172Z,64.30
2023-03-22T12:43:44.336Z,64.90
2023-03-22T12:46:31.519Z,64.80
2023-03-22T12:49:12.383Z,64.90
2023-03-22T12:51:42.042Z,65.20
2023-03-22T12:54:12.751Z,64.40
2023-03-22T12:56:43.179Z,61.60
2023-03-22T12:59:20.521Z,63.00
2023-03-22T13:02:04.480Z,63.80
2023-03-22T13:04:32.182Z,62.80
2023-03-22T13:07:11.720Z,61.70
2023-03-22T13:09:48.873Z,61.70
2023-03-22T13:12:17.037Z,61.30
2023-03-22T13:14:56.080Z,61.60
2023-03-22T13:17:23.811Z,60.80
2023-03-22T13:20:08.195Z,60.20
2023-03-22T13:22:38.693Z,62.60
2023-03-22T13:25:23.611Z,62.40
2023-03-22T13:28:23.200Z,61.40
2023-03-22T13:30:54.907Z,62.10
2023-03-22T13:33:25.671Z,61.80
2023-03-22T13:35:59.377Z,61.30
2023-03-22T13:38:29.374Z,63.20
2023-03-22T13:41:05.962Z,60.30
2023-03-22T13:43:43.471Z,59.50
2023-03-22T13:46:20.015Z,59.00
2023-03-22T13:48:48.401Z,59.40
2023-03-22T13:51:22.706Z,59.60
2023-03-22T13:54:18.596Z,60.40
2023-03-22T13:56:54.120Z,60.30
2023-03-22T13:59:27.851Z,59.80
2023-03-22T14:02:33.675Z,59.40
2023-03-22T14:05:18.715Z,60.00
2023-03-22T14:07:52.212Z,59.90
2023-03-22T14:10:28.136Z,60.60
2023-03-22T14:13:05.635Z,60.90
2023-03-22T14:15:38.585Z,60.80
2023-03-22T14:18:23.620Z,60.60
2023-03-22T14:20:55.670Z,61.60
